Time;durP1;ratioP1;P1;durP2;ratioP2;P2;SDS_P1;SDS_P2;PMS_P1;PMS_P2;Temp;Humidity;BMP_temperature;BMP_pressure;BME280_temperature;BME280_humidity;BME280_pressure;Samples;Min_cycle;Max_cycle;Signal;HPM_P1;HPM_P2
2023/10/28 00:00:54;;;;;;;6.97;4.63;;;9.20;99.90;;;;;;5036471;28;20510;-60
2023/10/28 00:03:21;;;;;;;10.30;4.57;;;9.20;99.90;;;;;;5035998;28;20440;-60
2023/10/28 00:05:49;;;;;;;9.53;4.40;;;9.30;99.90;;;;;;5036147;28;20491;-60
2023/10/28 00:08:16;;;;;;;6.97;4.20;;;9.30;99.90;;;;;;5035991;28;20792;-60
2023/10/28 00:10:46;;;;;;;6.13;4.00;;;9.20;99.90;;;;;;5036374;28;20933;-60
2023/10/28 00:13:15;;;;;;;6.97;4.20;;;9.20;99.90;;;;;;5036550;28;20464;-60
2023/10/28 00:15:42;;;;;;;9.27;4.47;;;9.20;99.90;;;;;;5036207;28;20923;-60
2023/10/28 00:18:10;;;;;;;11.37;4.60;;;9.20;99.90;;;;;;5036397;28;20437;-60
2023/10/28 00:20:37;;;;;;;5.87;4.13;;;9.20;99.90;;;;;;5035899;28;20837;-60
2023/10/28 00:23:06;;;;;;;9.30;4.60;;;9.20;99.90;;;;;;5036134;28;20459;-60
2023/10/28 00:25:34;;;;;;;8.60;4.83;;;9.20;99.90;;;;;;5035305;28;20582;-60
2023/10/28 00:28:03;;;;;;;10.23;4.20;;;9.20;99.90;;;;;;5036511;28;20512;-60
2023/10/28 00:30:30;;;;;;;10.80;5.87;;;9.20;99.90;;;;;;5036220;28;20459;-61
2023/10/28 00:32:58;;;;;;;8.77;5.77;;;9.30;99.90;;;;;;5035210;28;20459;-61
2023/10/28 00:35:26;;;;;;;12.00;5.50;;;9.20;99.90;;;;;;5035841;28;20463;-60
2023/10/28 00:37:53;;;;;;;8.33;4.80;;;9.30;99.90;;;;;;5036083;28;20751;-60
2023/10/28 00:40:20;;;;;;;9.37;4.30;;;9.30;99.90;;;;;;5035986;28;20459;-61
2023/10/28 00:42:47;;;;;;;9.97;4.60;;;9.30;99.90;;;;;;5036023;28;20477;-60
2023/10/28 00:45:16;;;;;;;7.53;4.40;;;9.30;99.90;;;;;;5035866;28;20467;-60
2023/10/28 00:47:46;;;;;;;9.10;4.53;;;9.40;99.90;;;;;;5036035;28;20519;-60
2023/10/28 00:50:15;;;;;;;10.83;4.43;;;9.50;99.90;;;;;;5035975;28;20460;-60
2023/10/28 00:52:45;;;;;;;9.03;4.10;;;9.50;99.90;;;;;;5035803;28;20967;-60
2023/10/28 00:55:13;;;;;;;7.90;4.03;;;9.60;99.90;;;;;;5035434;28;20473;-60
2023/10/28 00:57:41;;;;;;;6.97;3.63;;;9.60;99.90;;;;;;5036093;28;20455;-60
2023/10/28 01:00:10;;;;;;;14.23;4.00;;;9.60;99.90;;;;;;5035685;28;20463;-60
2023/10/28 01:02:40;;;;;;;9.47;3.83;;;9.70;99.90;;;;;;5035030;28;20549;-59
2023/10/28 01:05:11;;;;;;;10.00;4.40;;;9.70;99.90;;;;;;5035396;28;20456;-61
2023/10/28 01:07:40;;;;;;;5.10;3.50;;;9.70;99.90;;;;;;5035106;28;20594;-61
2023/10/28 01:10:08;;;;;;;5.20;3.40;;;9.80;99.90;;;;;;5035547;28;20491;-62
2023/10/28 01:12:37;;;;;;;9.07;4.90;;;9.80;99.90;;;;;;5034901;28;20566;-61
2023/10/28 01:15:06;;;;;;;9.87;4.10;;;9.80;99.90;;;;;;5035065;28;20465;-60
2023/10/28 01:17:33;;;;;;;5.67;3.77;;;9.80;99.90;;;;;;5035259;28;20462;-60
2023/10/28 01:20:01;;;;;;;10.20;3.60;;;9.90;99.90;;;;;;5035485;28;20463;-62
2023/10/28 01:22:30;;;;;;;9.70;3.80;;;9.90;99.90;;;;;;5035406;28;20458;-61
2023/10/28 01:24:57;;;;;;;6.97;3.77;;;9.90;99.90;;;;;;5034857;28;20467;-61
2023/10/28 01:27:24;;;;;;;5.33;3.53;;;9.90;99.90;;;;;;5035031;28;20498;-61
2023/10/28 01:29:52;;;;;;;7.60;3.47;;;9.90;99.90;;;;;;5035230;28;20466;-61
2023/10/28 01:32:19;;;;;;;7.17;4.00;;;9.80;99.90;;;;;;5034735;28;20459;-61
2023/10/28 01:34:50;;;;;;;7.30;3.50;;;9.90;99.90;;;;;;5034404;28;20470;-62
2023/10/28 01:37:17;;;;;;;7.97;3.33;;;10.00;99.90;;;;;;5033723;28;20458;-62
2023/10/28 01:39:48;;;;;;;6.83;3.60;;;9.90;99.90;;;;;;5034964;28;20467;-61
2023/10/28 01:42:15;;;;;;;7.67;3.80;;;9.90;99.90;;;;;;5035051;28;20468;-61
2023/10/28 01:44:42;;;;;;;5.70;3.20;;;9.90;99.90;;;;;;5034812;28;20463;-60
2023/10/28 01:47:10;;;;;;;8.00;3.93;;;9.90;99.90;;;;;;5034806;28;20494;-60
2023/10/28 01:49:37;;;;;;;7.07;3.57;;;9.90;99.90;;;;;;5035327;28;20540;-61
2023/10/28 01:52:07;;;;;;;5.00;3.10;;;9.90;99.90;;;;;;5034946;28;20459;-62
2023/10/28 01:54:35;;;;;;;7.17;3.30;;;9.90;99.90;;;;;;5034564;28;20463;-60
2023/10/28 01:57:05;;;;;;;5.30;3.20;;;9.90;99.90;;;;;;5034506;28;20456;-60
2023/10/28 01:59:33;;;;;;;7.23;3.33;;;9.90;99.90;;;;;;5034587;28;20512;-61
2023/10/28 02:02:02;;;;;;;6.80;3.20;;;9.90;99.90;;;;;;5034702;28;20466;-61
2023/10/28 02:04:30;;;;;;;8.50;4.70;;;9.90;99.90;;;;;;5034501;28;20852;-61
2023/10/28 02:06:57;;;;;;;5.27;3.40;;;9.90;99.90;;;;;;5034241;28;20469;-61
2023/10/28 02:09:25;;;;;;;6.77;3.60;;;9.90;99.90;;;;;;5034688;28;20466;-62
2023/10/28 02:11:53;;;;;;;9.10;3.37;;;9.90;99.90;;;;;;5034860;28;20469;-61
2023/10/28 02:14:23;;;;;;;6.00;3.00;;;9.90;99.90;;;;;;5035001;28;20471;-62
2023/10/28 02:16:50;;;;;;;4.97;3.60;;;9.80;99.90;;;;;;5034658;28;20438;-61
2023/10/28 02:19:20;;;;;;;5.03;3.60;;;9.80;99.90;;;;;;5034218;28;20460;-61
2023/10/28 02:21:48;;;;;;;14.20;3.70;;;9.90;99.90;;;;;;5034708;28;20478;-61
2023/10/28 02:24:16;;;;;;;6.47;3.80;;;9.90;99.90;;;;;;5034673;28;20466;-62
2023/10/28 02:26:44;;;;;;;7.10;4.27;;;9.90;99.90;;;;;;5033785;28;20491;-61
2023/10/28 02:29:11;;;;;;;6.47;3.90;;;10.00;99.90;;;;;;5033945;28;20481;-60
2023/10/28 02:31:40;;;;;;;5.37;4.00;;;10.00;99.90;;;;;;5034404;28;20466;-61
2023/10/28 02:34:07;;;;;;;5.60;3.50;;;9.90;99.90;;;;;;5033584;28;20459;-60
2023/10/28 02:36:34;;;;;;;5.07;4.37;;;10.00;99.90;;;;;;5034115;28;20508;-60
2023/10/28 02:39:01;;;;;;;7.17;4.57;;;10.00;99.90;;;;;;5034158;28;20963;-60
2023/10/28 02:41:30;;;;;;;9.20;4.30;;;9.90;99.90;;;;;;5034182;28;20467;-61
2023/10/28 02:43:58;;;;;;;7.33;3.83;;;9.90;99.90;;;;;;5033790;28;20563;-59
2023/10/28 02:46:27;;;;;;;7.00;3.97;;;10.00;99.90;;;;;;5033799;28;20534;-59
2023/10/28 02:49:00;;;;;;;6.83;4.30;;;10.00;99.90;;;;;;5034565;28;20471;-62
2023/10/28 02:51:29;;;;;;;8.43;4.50;;;10.00;99.90;;;;;;5037490;28;20892;-61
2023/10/28 02:53:58;;;;;;;5.60;3.80;;;10.00;99.90;;;;;;5037658;28;20835;-61
2023/10/28 02:56:26;;;;;;;6.50;3.90;;;9.90;99.90;;;;;;5037850;28;20446;-62
2023/10/28 02:58:53;;;;;;;6.37;3.63;;;10.00;99.90;;;;;;5037170;28;20459;-61
2023/10/28 03:01:20;;;;;;;5.40;3.30;;;9.90;99.90;;;;;;5037324;28;20466;-61
2023/10/28 03:03:47;;;;;;;5.17;3.50;;;10.00;99.90;;;;;;5037037;28;20455;-61
2023/10/28 03:06:16;;;;;;;6.53;3.70;;;10.00;99.90;;;;;;5037355;28;20459;-62
2023/10/28 03:08:44;;;;;;;4.00;3.03;;;10.00;99.90;;;;;;5036793;28;20483;-62
2023/10/28 03:11:11;;;;;;;3.90;2.87;;;10.00;99.90;;;;;;5037227;28;20522;-60
2023/10/28 03:13:38;;;;;;;4.57;2.70;;;10.00;99.90;;;;;;5037336;28;20784;-59
2023/10/28 03:16:06;;;;;;;5.60;2.97;;;10.10;99.90;;;;;;5037551;28;20520;-60
2023/10/28 03:18:33;;;;;;;3.97;2.90;;;10.00;99.90;;;;;;5036926;28;20524;-62
2023/10/28 03:21:00;;;;;;;3.27;2.20;;;10.00;99.90;;;;;;5036879;28;20463;-61
2023/10/28 03:23:29;;;;;;;4.53;2.80;;;10.00;99.90;;;;;;5036946;28;20458;-61
2023/10/28 03:25:56;;;;;;;3.87;2.60;;;10.00;99.90;;;;;;5037436;28;20433;-61
2023/10/28 03:28:23;;;;;;;3.77;2.80;;;10.00;99.90;;;;;;5037420;28;20517;-60
2023/10/28 03:30:50;;;;;;;7.53;2.50;;;9.90;99.90;;;;;;5036730;28;20473;-59
2023/10/28 03:33:18;;;;;;;8.70;3.10;;;10.00;99.90;;;;;;5036127;28;20467;-61
2023/10/28 03:35:45;;;;;;;6.23;2.70;;;9.90;99.90;;;;;;5036873;28;20459;-59
2023/10/28 03:38:12;;;;;;;5.10;3.90;;;9.90;99.90;;;;;;5036951;28;20763;-60
2023/10/28 03:40:41;;;;;;;5.07;3.10;;;9.90;99.90;;;;;;5036684;28;20880;-59
2023/10/28 03:43:09;;;;;;;4.60;3.00;;;9.90;99.90;;;;;;5036750;28;20459;-60
2023/10/28 03:45:38;;;;;;;6.93;3.67;;;9.90;99.90;;;;;;5036512;28;20769;-60
2023/10/28 03:48:05;;;;;;;4.83;3.17;;;9.90;99.90;;;;;;5036784;28;20498;-60
2023/10/28 03:50:33;;;;;;;5.63;3.53;;;9.90;99.90;;;;;;5036851;28;20477;-59
2023/10/28 03:53:00;;;;;;;5.77;3.60;;;9.90;99.90;;;;;;5036593;28;20950;-60
2023/10/28 03:55:27;;;;;;;10.20;4.03;;;9.90;99.90;;;;;;5036720;28;20464;-60
2023/10/28 03:57:56;;;;;;;6.93;4.37;;;9.90;99.90;;;;;;5036953;28;20455;-60
2023/10/28 04:00:22;;;;;;;6.50;3.70;;;9.90;99.90;;;;;;5035736;28;20459;-60
2023/10/28 04:02:51;;;;;;;6.33;4.80;;;9.90;99.90;;;;;;5036335;28;20460;-60
2023/10/28 04:05:19;;;;;;;6.53;4.53;;;9.80;99.90;;;;;;5036676;28;20460;-60
2023/10/28 04:07:46;;;;;;;5.77;4.47;;;9.80;99.90;;;;;;5036017;28;20522;-60
2023/10/28 04:10:13;;;;;;;7.70;4.70;;;9.80;99.90;;;;;;5036528;28;20470;-60
2023/10/28 04:12:40;;;;;;;7.20;4.53;;;9.80;99.90;;;;;;5035997;28;20474;-60
2023/10/28 04:15:13;;;;;;;7.60;5.07;;;9.70;99.90;;;;;;5036056;28;20459;-59
2023/10/28 04:17:40;;;;;;;5.67;4.90;;;9.70;99.90;;;;;;5036668;28;20883;-60
2023/10/28 04:20:10;;;;;;;12.50;5.60;;;9.70;99.90;;;;;;5036407;28;20481;-60
2023/10/28 04:22:37;;;;;;;6.23;5.17;;;9.70;99.90;;;;;;5036000;28;20516;-60
2023/10/28 04:25:05;;;;;;;7.53;5.00;;;9.70;99.90;;;;;;5036450;28;20462;-59
2023/10/28 04:27:33;;;;;;;6.43;4.53;;;9.60;99.90;;;;;;5036100;28;20462;-59
2023/10/28 04:30:00;;;;;;;7.87;5.40;;;9.60;99.90;;;;;;5036156;28;20459;-60
2023/10/28 04:32:28;;;;;;;6.50;5.10;;;9.60;99.90;;;;;;5035116;28;20433;-60
2023/10/28 04:34:55;;;;;;;6.70;4.73;;;9.50;99.90;;;;;;5035598;28;20812;-60
2023/10/28 04:37:23;;;;;;;6.63;4.70;;;9.50;99.90;;;;;;5035837;28;20456;-60
2023/10/28 04:39:51;;;;;;;6.10;4.53;;;9.40;99.90;;;;;;5036102;28;20876;-60
2023/10/28 04:42:19;;;;;;;8.27;4.27;;;9.50;99.90;;;;;;5036333;28;20892;-60
2023/10/28 04:44:46;;;;;;;6.47;3.97;;;9.40;99.90;;;;;;5035554;28;20673;-60
2023/10/28 04:47:14;;;;;;;6.70;4.70;;;9.40;99.90;;;;;;5035273;28;20972;-59
2023/10/28 04:49:42;;;;;;;9.90;4.97;;;9.30;99.90;;;;;;5035913;28;20596;-60
2023/10/28 04:52:09;;;;;;;7.47;4.27;;;9.30;99.90;;;;;;5035888;28;20467;-60
2023/10/28 04:54:38;;;;;;;5.20;4.20;;;9.30;99.90;;;;;;5035727;28;20521;-60
2023/10/28 04:57:05;;;;;;;6.70;4.10;;;9.30;99.90;;;;;;5035510;28;20466;-60
2023/10/28 04:59:32;;;;;;;6.30;4.60;;;9.30;99.90;;;;;;5035304;28;20744;-60
2023/10/28 05:02:00;;;;;;;6.40;4.80;;;9.30;99.90;;;;;;5036116;28;20887;-60
2023/10/28 05:04:28;;;;;;;7.47;4.77;;;9.40;99.90;;;;;;5035317;28;20470;-60
2023/10/28 05:06:56;;;;;;;5.77;4.73;;;9.40;99.90;;;;;;5034273;28;20515;-60
2023/10/28 05:09:23;;;;;;;8.60;5.10;;;9.40;99.90;;;;;;5034651;28;20458;-60
2023/10/28 05:11:55;;;;;;;4.60;4.00;;;9.40;99.90;;;;;;5034287;28;20741;-60
2023/10/28 05:14:23;;;;;;;6.20;4.20;;;9.40;99.90;;;;;;5035155;28;20939;-60
2023/10/28 05:16:50;;;;;;;8.77;5.40;;;9.40;99.90;;;;;;5033930;28;20455;-60
2023/10/28 05:19:20;;;;;;;6.83;4.80;;;9.40;99.90;;;;;;5033592;28;20546;-59
2023/10/28 05:21:47;;;;;;;7.77;5.20;;;9.40;99.90;;;;;;5032931;28;20441;-60
2023/10/28 05:24:16;;;;;;;5.70;4.50;;;9.50;99.90;;;;;;5034006;28;20768;-61
2023/10/28 05:26:43;;;;;;;7.10;4.47;;;9.50;99.90;;;;;;5033319;28;20805;-60
2023/10/28 05:29:11;;;;;;;7.20;3.63;;;9.50;99.90;;;;;;5033976;28;20512;-60
2023/10/28 05:31:38;;;;;;;7.33;3.60;;;9.50;99.90;;;;;;5034565;28;20463;-60
2023/10/28 05:34:05;;;;;;;8.00;3.73;;;9.60;99.90;;;;;;5033711;28;20477;-59
2023/10/28 05:36:32;;;;;;;4.97;3.47;;;9.60;99.90;;;;;;5035256;28;20455;-59
2023/10/28 05:39:00;;;;;;;6.47;3.97;;;9.60;99.90;;;;;;5035170;28;20542;-60
2023/10/28 05:41:28;;;;;;;5.70;4.33;;;9.60;99.90;;;;;;5033979;28;20542;-60
2023/10/28 05:43:55;;;;;;;7.80;3.90;;;9.60;99.90;;;;;;5033502;28;20455;-60
2023/10/28 05:46:23;;;;;;;5.60;3.73;;;9.60;99.90;;;;;;5033395;28;20463;-59
2023/10/28 05:48:51;;;;;;;4.80;3.80;;;9.60;99.90;;;;;;5033071;28;20495;-58
2023/10/28 05:51:18;;;;;;;6.30;4.07;;;9.60;99.90;;;;;;5032976;28;20736;-58
2023/10/28 05:53:45;;;;;;;5.93;3.63;;;9.60;99.90;;;;;;5032980;28;20458;-59
2023/10/28 05:56:14;;;;;;;5.90;3.83;;;9.70;99.90;;;;;;5032921;28;20466;-58
2023/10/28 05:58:42;;;;;;;3.53;3.20;;;9.70;99.90;;;;;;5034405;28;20460;-59
2023/10/28 06:01:09;;;;;;;3.97;3.43;;;9.70;99.90;;;;;;5033734;28;20503;-58
2023/10/28 06:03:38;;;;;;;5.70;3.13;;;9.70;99.90;;;;;;5033469;28;20466;-58
2023/10/28 06:06:06;;;;;;;3.70;3.20;;;9.70;99.90;;;;;;5034229;28;20794;-58
2023/10/28 06:08:33;;;;;;;4.80;3.13;;;9.70;99.90;;;;;;5033412;28;20552;-58
2023/10/28 06:11:01;;;;;;;4.83;3.00;;;9.70;99.90;;;;;;5034226;28;20433;-58
2023/10/28 06:13:28;;;;;;;4.37;3.10;;;9.70;99.90;;;;;;5033934;28;20466;-58
2023/10/28 06:15:57;;;;;;;3.33;2.80;;;9.70;99.90;;;;;;5034774;28;20919;-58
2023/10/28 06:18:24;;;;;;;5.40;2.97;;;9.70;99.90;;;;;;5033568;28;20474;-58
2023/10/28 06:20:52;;;;;;;3.73;3.20;;;9.70;99.90;;;;;;5033962;28;20955;-58
2023/10/28 06:23:19;;;;;;;7.07;2.90;;;9.70;99.90;;;;;;5033507;28;20607;-58
2023/10/28 06:25:46;;;;;;;3.70;2.67;;;9.70;99.90;;;;;;5032801;28;20430;-58
2023/10/28 06:28:13;;;;;;;5.77;2.83;;;9.70;99.90;;;;;;5033690;28;20490;-59
2023/10/28 06:30:47;;;;;;;3.70;2.83;;;9.70;99.90;;;;;;5033791;28;20465;-58
2023/10/28 06:33:15;;;;;;;4.60;2.67;;;9.70;99.90;;;;;;5033843;28;20433;-57
2023/10/28 06:35:43;;;;;;;6.30;2.70;;;9.70;99.90;;;;;;5034092;28;20432;-58
2023/10/28 06:38:10;;;;;;;5.17;3.27;;;9.70;99.90;;;;;;5034076;28;20462;-58
2023/10/28 06:40:38;;;;;;;3.90;2.70;;;9.70;99.90;;;;;;5033818;28;20463;-57
2023/10/28 06:43:05;;;;;;;4.30;3.20;;;9.70;99.90;;;;;;5034186;28;20461;-58
2023/10/28 06:45:32;;;;;;;3.90;2.70;;;9.70;99.90;;;;;;5034079;28;20999;-58
2023/10/28 06:47:59;;;;;;;6.53;3.10;;;9.70;99.90;;;;;;5034023;28;20498;-58
2023/10/28 06:50:28;;;;;;;4.13;2.80;;;9.80;99.90;;;;;;5033161;28;20437;-58
2023/10/28 06:52:56;;;;;;;4.00;2.80;;;9.70;99.90;;;;;;5033603;28;20455;-59
2023/10/28 06:55:23;;;;;;;3.40;2.70;;;9.70;99.90;;;;;;5033966;28;20546;-57
2023/10/28 06:57:51;;;;;;;4.00;2.80;;;9.70;99.90;;;;;;5034041;28;20441;-58
2023/10/28 07:00:23;;;;;;;7.27;3.10;;;9.80;99.90;;;;;;5034020;28;20786;-58
2023/10/28 07:02:50;;;;;;;7.03;2.57;;;9.90;99.90;;;;;;5033590;28;20463;-58
2023/10/28 07:05:18;;;;;;;4.20;2.60;;;9.90;99.90;;;;;;5033634;28;20473;-58
2023/10/28 07:07:46;;;;;;;4.73;2.87;;;9.90;99.90;;;;;;5032811;28;20494;-58
2023/10/28 07:10:14;;;;;;;5.43;2.20;;;9.90;99.90;;;;;;5032697;28;20487;-58
2023/10/28 07:12:44;;;;;;;4.27;3.20;;;9.90;99.90;;;;;;5032978;28;20477;-58
2023/10/28 07:15:11;;;;;;;4.47;2.37;;;9.90;99.90;;;;;;5033770;28;20459;-58
2023/10/28 07:17:39;;;;;;;3.83;2.47;;;10.00;99.90;;;;;;5033587;28;20875;-58
2023/10/28 07:20:08;;;;;;;3.33;2.20;;;10.00;99.90;;;;;;5033710;28;20461;-59
2023/10/28 07:22:38;;;;;;;3.50;2.03;;;10.00;99.90;;;;;;5032765;28;20490;-58
2023/10/28 07:25:07;;;;;;;4.60;1.87;;;10.00;99.90;;;;;;5033325;28;20463;-58
2023/10/28 07:27:34;;;;;;;3.70;2.33;;;10.00;99.90;;;;;;5033521;28;20962;-58
2023/10/28 07:30:02;;;;;;;3.90;2.10;;;10.00;99.90;;;;;;5033289;28;20447;-59
2023/10/28 07:32:30;;;;;;;3.70;2.30;;;10.00;99.90;;;;;;5033564;28;20821;-58
2023/10/28 07:34:57;;;;;;;3.13;2.30;;;10.00;99.90;;;;;;5034474;28;20467;-57
2023/10/28 07:37:25;;;;;;;4.67;2.63;;;10.10;99.90;;;;;;5036423;28;20524;-58
2023/10/28 07:39:52;;;;;;;3.53;2.13;;;10.20;99.90;;;;;;5036881;28;20463;-59
2023/10/28 07:42:23;;;;;;;4.77;2.67;;;10.20;99.90;;;;;;5036126;28;20429;-58
2023/10/28 07:44:51;;;;;;;2.80;1.93;;;10.30;99.90;;;;;;5036387;28;20459;-58
2023/10/28 07:47:18;;;;;;;4.83;2.00;;;10.30;99.90;;;;;;5036746;28;20862;-58
2023/10/28 07:49:45;;;;;;;3.37;2.00;;;10.30;99.90;;;;;;5036847;28;20494;-58
2023/10/28 07:52:12;;;;;;;3.00;1.93;;;10.40;99.90;;;;;;5036603;28;20774;-58
2023/10/28 07:54:40;;;;;;;4.07;2.40;;;10.40;99.90;;;;;;5036734;28;20483;-58
2023/10/28 07:57:08;;;;;;;4.63;2.10;;;10.40;99.90;;;;;;5037050;28;20463;-57
2023/10/28 07:59:36;;;;;;;5.03;3.30;;;10.40;99.90;;;;;;5036569;28;20455;-58
2023/10/28 08:02:04;;;;;;;3.70;1.97;;;10.60;99.90;;;;;;5036562;28;20459;-59
2023/10/28 08:04:31;;;;;;;4.20;2.40;;;10.60;99.90;;;;;;5036852;28;20562;-58
2023/10/28 08:06:58;;;;;;;3.97;1.70;;;10.70;99.90;;;;;;5036064;28;20467;-59
2023/10/28 08:09:25;;;;;;;3.07;1.80;;;10.70;99.90;;;;;;5034796;28;20802;-58
2023/10/28 08:11:54;;;;;;;2.80;1.93;;;10.70;99.90;;;;;;5035731;28;20466;-58
2023/10/28 08:14:21;;;;;;;4.87;2.90;;;10.60;99.90;;;;;;5035039;28;20456;-58
2023/10/28 08:16:50;;;;;;;4.80;2.40;;;10.70;99.90;;;;;;5035354;28;20455;-59
2023/10/28 08:19:17;;;;;;;4.57;2.30;;;10.60;99.90;;;;;;5034044;28;20887;-60
2023/10/28 08:21:45;;;;;;;7.00;2.80;;;10.60;99.90;;;;;;5033603;28;20459;-59
2023/10/28 08:24:15;;;;;;;2.90;2.20;;;10.50;99.90;;;;;;5035770;28;20458;-59
2023/10/28 08:26:45;;;;;;;3.63;2.17;;;10.60;99.90;;;;;;5035558;28;20865;-58
2023/10/28 08:29:13;;;;;;;3.17;2.03;;;10.60;99.90;;;;;;5035100;28;20487;-60
2023/10/28 08:31:40;;;;;;;3.83;2.70;;;10.70;99.90;;;;;;5034667;28;20487;-60
2023/10/28 08:34:09;;;;;;;4.20;2.70;;;10.70;99.90;;;;;;5034730;28;20459;-59
2023/10/28 08:36:36;;;;;;;3.53;2.00;;;10.70;99.90;;;;;;5035084;28;20896;-61
2023/10/28 08:39:05;;;;;;;4.10;2.33;;;10.70;99.90;;;;;;5034781;28;20423;-59
2023/10/28 08:41:32;;;;;;;3.40;2.50;;;10.70;99.90;;;;;;5035782;28;20455;-61
2023/10/28 08:44:04;;;;;;;6.80;2.30;;;10.70;99.90;;;;;;5034740;28;20456;-61
2023/10/28 08:46:32;;;;;;;4.07;2.47;;;10.70;99.90;;;;;;5032455;28;20514;-60
2023/10/28 08:49:01;;;;;;;5.83;3.30;;;10.70;99.90;;;;;;5034340;28;20521;-60
2023/10/28 08:51:30;;;;;;;4.40;2.83;;;10.70;99.90;;;;;;5035084;28;20459;-59
2023/10/28 08:53:59;;;;;;;4.00;2.50;;;10.80;99.90;;;;;;5034548;28;20452;-59
2023/10/28 08:56:28;;;;;;;5.30;3.00;;;10.80;99.90;;;;;;5034789;28;20458;-60
2023/10/28 08:58:56;;;;;;;5.90;2.53;;;10.80;99.90;;;;;;5033990;28;20452;-60
2023/10/28 09:01:24;;;;;;;7.27;2.23;;;10.90;99.90;;;;;;5034886;28;20756;-59
2023/10/28 09:03:54;;;;;;;4.30;2.10;;;10.90;99.90;;;;;;5030730;28;20519;-59
2023/10/28 09:06:22;;;;;;;4.00;2.53;;;11.00;99.90;;;;;;5035160;28;20459;-59
2023/10/28 09:08:55;;;;;;;4.23;2.30;;;11.00;99.90;;;;;;5034891;28;20476;-60
2023/10/28 09:11:23;;;;;;;5.00;2.60;;;11.00;99.90;;;;;;5034862;28;20762;-60
2023/10/28 09:13:51;;;;;;;5.03;2.20;;;10.90;99.90;;;;;;5034500;28;20460;-60
2023/10/28 09:16:18;;;;;;;2.70;1.77;;;11.00;99.90;;;;;;5035402;28;20459;-60
2023/10/28 09:18:49;;;;;;;3.53;2.17;;;11.10;99.90;;;;;;5034400;28;20471;-59
2023/10/28 09:21:16;;;;;;;3.33;2.03;;;11.10;99.90;;;;;;5035086;28;20473;-58
2023/10/28 09:23:43;;;;;;;3.03;2.00;;;11.10;99.90;;;;;;5035026;28;20483;-59
2023/10/28 09:26:12;;;;;;;2.70;2.00;;;11.10;99.90;;;;;;5035717;28;20451;-59
2023/10/28 09:28:44;;;;;;;3.10;1.77;;;11.20;99.90;;;;;;5034687;28;20503;-59
2023/10/28 09:31:12;;;;;;;4.50;2.20;;;11.10;99.90;;;;;;5034983;28;20459;-60
2023/10/28 09:33:39;;;;;;;3.93;2.30;;;11.10;99.90;;;;;;5033528;28;20907;-59
2023/10/28 09:36:08;;;;;;;2.87;2.00;;;11.20;99.90;;;;;;5033937;28;20538;-59
2023/10/28 09:38:37;;;;;;;3.20;2.10;;;11.10;99.90;;;;;;5034438;28;20773;-60
2023/10/28 09:41:07;;;;;;;4.53;2.20;;;11.10;99.90;;;;;;5035113;28;20482;-58
2023/10/28 09:43:37;;;;;;;4.17;2.33;;;11.20;99.90;;;;;;5034902;28;20902;-61
2023/10/28 09:46:06;;;;;;;3.60;2.10;;;11.20;99.90;;;;;;5035300;28;20471;-60
2023/10/28 09:48:38;;;;;;;4.87;2.37;;;11.20;99.90;;;;;;5034263;28;20487;-60
2023/10/28 09:51:06;;;;;;;4.03;2.53;;;11.20;99.90;;;;;;5034531;28;20438;-61
2023/10/28 09:53:36;;;;;;;4.83;2.20;;;11.30;99.90;;;;;;5034656;28;20482;-59
2023/10/28 09:56:05;;;;;;;4.07;2.07;;;11.40;99.90;;;;;;5034042;28;20542;-59
2023/10/28 09:58:38;;;;;;;3.43;2.07;;;11.40;99.90;;;;;;5032194;28;20554;-60
2023/10/28 10:01:14;;;;;;;4.30;2.70;;;11.60;99.90;;;;;;5034630;28;20597;-59
2023/10/28 10:03:55;;;;;;;3.70;2.33;;;11.60;99.90;;;;;;5034420;28;20438;-60
2023/10/28 10:06:22;;;;;;;3.10;2.20;;;11.60;99.90;;;;;;5035060;28;20465;-60
2023/10/28 10:08:52;;;;;;;3.63;2.20;;;11.80;99.90;;;;;;5033854;28;20960;-58
2023/10/28 10:11:23;;;;;;;4.20;2.70;;;11.80;99.90;;;;;;5034657;28;20456;-59
2023/10/28 10:13:52;;;;;;;3.53;2.70;;;11.80;99.90;;;;;;5032691;27;20464;-60
2023/10/28 10:16:31;;;;;;;4.27;2.30;;;11.90;99.90;;;;;;5032325;28;20455;-59
2023/10/28 10:19:05;;;;;;;3.73;2.40;;;11.80;99.90;;;;;;5033129;28;20469;-59
2023/10/28 10:21:33;;;;;;;4.90;2.27;;;11.80;99.90;;;;;;5032998;28;20523;-59
2023/10/28 10:24:05;;;;;;;4.30;2.40;;;11.80;99.90;;;;;;5032666;28;20475;-58
2023/10/28 10:26:34;;;;;;;6.93;2.73;;;11.90;99.90;;;;;;5032308;28;20459;-59
2023/10/28 10:29:04;;;;;;;5.00;2.30;;;12.00;99.90;;;;;;5032601;28;20593;-59
2023/10/28 10:31:33;;;;;;;6.00;3.50;;;12.20;99.90;;;;;;5032442;28;20455;-59
2023/10/28 10:34:02;;;;;;;3.53;2.30;;;12.20;99.90;;;;;;5032339;28;20739;-59
2023/10/28 10:36:30;;;;;;;3.63;2.40;;;12.20;99.90;;;;;;5033525;28;20471;-59
2023/10/28 10:39:11;;;;;;;5.77;2.87;;;12.20;99.90;;;;;;5031822;28;20967;-59
2023/10/28 10:41:40;;;;;;;3.60;2.63;;;12.30;99.90;;;;;;5012826;28;20530;-60
2023/10/28 10:44:33;;;;;;;4.27;2.80;;;12.70;99.90;;;;;;5012081;28;20438;-60
2023/10/28 10:47:00;;;;;;;5.17;2.40;;;12.90;99.90;;;;;;5014275;28;20527;-59
2023/10/28 10:49:30;;;;;;;4.83;1.97;;;13.00;99.90;;;;;;5014324;28;20542;-59
2023/10/28 10:51:59;;;;;;;7.50;2.40;;;13.00;99.90;;;;;;5014742;28;20517;-59
2023/10/28 10:54:30;;;;;;;3.37;2.50;;;12.90;99.90;;;;;;5014608;28;20743;-58
2023/10/28 10:56:58;;;;;;;5.60;2.30;;;13.10;99.90;;;;;;5014394;28;20466;-59
2023/10/28 10:59:28;;;;;;;3.17;2.17;;;13.30;99.90;;;;;;5012648;28;20717;-59
2023/10/28 11:02:00;;;;;;;4.80;2.53;;;13.60;99.90;;;;;;5012707;28;20456;-60
2023/10/28 11:04:27;;;;;;;5.20;2.27;;;14.00;99.90;;;;;;5012181;28;20495;-60
2023/10/28 11:06:55;;;;;;;4.47;2.23;;;14.30;99.90;;;;;;5012113;28;20459;-59
2023/10/28 11:09:22;;;;;;;3.90;2.07;;;14.80;99.90;;;;;;5013965;28;20496;-60
2023/10/28 11:11:50;;;;;;;3.03;1.80;;;15.00;99.90;;;;;;5016881;28;20464;-59
2023/10/28 11:14:17;;;;;;;3.80;1.90;;;14.80;99.90;;;;;;5017730;28;20559;-59
2023/10/28 11:16:46;;;;;;;3.07;1.70;;;15.10;99.90;;;;;;5016831;28;20488;-59
2023/10/28 11:19:13;;;;;;;3.83;2.27;;;15.30;99.90;;;;;;5017311;28;20949;-59
2023/10/28 11:21:41;;;;;;;4.60;1.90;;;15.30;63.50;;;;;;5029780;28;20462;-59
2023/10/28 11:24:10;;;;;;;3.20;2.10;;;15.20;1.00;;;;;;5037296;28;20557;-59
2023/10/28 11:26:38;;;;;;;6.93;1.90;;;14.90;99.90;;;;;;5035313;28;20475;-59
2023/10/28 11:29:07;;;;;;;4.60;2.30;;;15.00;1.00;;;;;;5036233;28;20788;-59
2023/10/28 11:31:39;;;;;;;4.43;2.80;;;15.20;1.00;;;;;;5037070;28;20467;-59
2023/10/28 11:34:08;;;;;;;5.37;2.47;;;15.40;1.00;;;;;;5036240;28;20516;-59
2023/10/28 11:36:35;;;;;;;4.77;2.63;;;15.70;99.90;;;;;;5036460;28;20459;-58
2023/10/28 11:39:08;;;;;;;4.30;2.43;;;16.10;99.90;;;;;;5035094;28;20466;-59
2023/10/28 11:41:36;;;;;;;6.53;2.33;;;16.30;99.90;;;;;;5090928;27;20459;-58
2023/10/28 11:44:03;;;;;;;3.80;2.10;;;16.50;99.90;;;;;;5138247;27;20915;-59
2023/10/28 11:46:31;;;;;;;4.80;2.30;;;16.50;99.90;;;;;;5138261;27;20463;-58
2023/10/28 11:48:58;;;;;;;5.30;3.03;;;16.30;99.90;;;;;;5137512;27;20454;-59
2023/10/28 11:51:27;;;;;;;3.50;2.50;;;16.50;99.90;;;;;;5137920;27;20463;-59
2023/10/28 11:53:55;;;;;;;6.27;2.00;;;16.70;99.90;;;;;;5140053;27;20549;-58
2023/10/28 11:56:22;;;;;;;6.17;3.47;;;16.80;99.90;;;;;;5140517;27;20463;-60
2023/10/28 11:58:50;;;;;;;4.30;2.40;;;17.10;99.90;;;;;;5140907;27;20922;-59
2023/10/28 12:01:18;;;;;;;6.03;2.10;;;17.30;99.90;;;;;;5140697;27;20458;-59
2023/10/28 12:03:46;;;;;;;6.70;2.70;;;17.20;99.90;;;;;;5140528;27;20903;-58
2023/10/28 12:06:14;;;;;;;5.30;2.30;;;17.10;99.90;;;;;;5141179;27;20459;-58
2023/10/28 12:08:43;;;;;;;6.93;2.67;;;17.00;90.80;;;;;;5140267;27;20493;-57
2023/10/28 12:11:10;;;;;;;6.00;2.37;;;16.90;65.70;;;;;;5140572;27;20581;-57
2023/10/28 12:13:38;;;;;;;11.60;3.60;;;16.40;37.00;;;;;;5140263;27;20433;-58
2023/10/28 12:16:06;;;;;;;10.10;3.13;;;16.30;32.90;;;;;;5140420;27;20465;-56
2023/10/28 12:18:33;;;;;;;7.80;3.33;;;16.00;20.80;;;;;;5140493;27;20462;-57
2023/10/28 12:21:02;;;;;;;5.43;2.63;;;15.80;21.20;;;;;;5140366;27;20500;-57
2023/10/28 12:23:29;;;;;;;7.23;2.90;;;15.80;28.70;;;;;;5140963;27;20890;-57
2023/10/28 12:25:58;;;;;;;5.20;2.57;;;15.60;29.30;;;;;;5140317;27;20507;-57
2023/10/28 12:28:25;;;;;;;7.17;2.60;;;15.60;40.90;;;;;;5140513;27;20455;-57
2023/10/28 12:30:52;;;;;;;7.53;3.27;;;15.60;88.40;;;;;;5140630;27;20487;-57
2023/10/28 12:33:20;;;;;;;9.17;3.27;;;15.60;48.50;;;;;;5139688;27;20432;-57
2023/10/28 12:35:47;;;;;;;5.63;3.13;;;15.50;45.00;;;;;;5139826;27;20455;-56
2023/10/28 12:38:14;;;;;;;5.17;3.30;;;15.40;33.10;;;;;;5140278;27;20839;-58
2023/10/28 12:40:41;;;;;;;5.60;2.93;;;15.20;18.70;;;;;;5139865;27;20554;-57
2023/10/28 12:43:10;;;;;;;7.23;3.23;;;15.10;25.70;;;;;;5140277;27;20454;-57
2023/10/28 12:45:37;;;;;;;7.40;2.73;;;15.10;39.10;;;;;;5139950;27;20429;-56
2023/10/28 12:48:05;;;;;;;5.03;2.30;;;15.20;53.80;;;;;;5140038;27;20459;-57
2023/10/28 12:50:32;;;;;;;5.60;2.90;;;15.50;25.30;;;;;;5139770;27;20465;-56
2023/10/28 12:52:59;;;;;;;6.50;2.90;;;15.40;11.40;;;;;;5140024;27;20503;-57
2023/10/28 12:55:27;;;;;;;5.60;2.53;;;15.70;40.50;;;;;;5139946;27;20455;-57